Time;durP1;ratioP1;P1;durP2;ratioP2;P2;SDS_P1;SDS_P2;PMS_P1;PMS_P2;Temp;Humidity;BMP_temperature;BMP_pressure;BME280_temperature;BME280_humidity;BME280_pressure;Samples;Min_cycle;Max_cycle;Signal;HPM_P1;HPM_P2
2023/04/01 00:01:00;;;;;;;26.30;8.73;;;7.20;100.00;;;;;;5062658;28;20063;-77
2023/04/01 00:03:28;;;;;;;23.52;8.55;;;7.10;100.00;;;;;;5080646;28;20136;-77
2023/04/01 00:05:57;;;;;;;27.45;8.73;;;7.10;100.00;;;;;;5063668;28;20052;-77
2023/04/01 00:08:25;;;;;;;28.13;9.35;;;7.00;100.00;;;;;;5061870;28;20054;-77
2023/04/01 00:10:53;;;;;;;22.10;8.80;;;7.00;100.00;;;;;;5074462;28;20040;-77
2023/04/01 00:13:20;;;;;;;27.90;9.35;;;6.90;100.00;;;;;;5061077;28;20050;-77
2023/04/01 00:15:47;;;;;;;28.25;9.68;;;6.90;100.00;;;;;;5062282;28;20382;-77
2023/04/01 00:18:15;;;;;;;22.98;9.27;;;6.80;100.00;;;;;;5055657;28;20041;-77
2023/04/01 00:20:50;;;;;;;25.08;8.98;;;6.80;100.00;;;;;;5057347;28;20445;-77
2023/04/01 00:23:18;;;;;;;16.90;7.40;;;6.80;100.00;;;;;;5057093;28;20044;-77
2023/04/01 00:25:47;;;;;;;19.02;6.97;;;6.70;100.00;;;;;;5059876;28;20052;-77
2023/04/01 00:28:16;;;;;;;20.27;7.35;;;6.70;100.00;;;;;;5064484;28;20117;-77
2023/04/01 00:30:43;;;;;;;20.52;7.28;;;6.60;100.00;;;;;;5076737;28;20059;-77
2023/04/01 00:33:10;;;;;;;22.45;7.10;;;6.60;100.00;;;;;;5077466;28;20047;-77
2023/04/01 00:35:38;;;;;;;17.45;7.00;;;6.50;100.00;;;;;;5077134;28;20091;-77
2023/04/01 00:38:06;;;;;;;17.27;7.25;;;6.40;100.00;;;;;;5059590;28;20062;-77
2023/04/01 00:40:39;;;;;;;16.83;7.20;;;6.50;100.00;;;;;;5079191;28;20052;-77
2023/04/01 00:43:19;;;;;;;17.70;7.05;;;6.40;100.00;;;;;;5070194;28;20049;-78
2023/04/01 00:45:48;;;;;;;17.77;6.47;;;6.40;100.00;;;;;;5076358;28;20659;-77
2023/04/01 00:48:20;;;;;;;16.70;6.68;;;6.30;100.00;;;;;;5071631;28;20048;-77
2023/04/01 00:50:59;;;;;;;19.30;6.78;;;6.30;100.00;;;;;;5058802;28;20050;-77
2023/04/01 00:53:29;;;;;;;14.70;6.18;;;6.30;100.00;;;;;;5052105;28;20758;-77
2023/04/01 00:56:07;;;;;;;22.90;6.72;;;6.30;100.00;;;;;;5059370;28;20755;-77
2023/04/01 00:58:39;;;;;;;19.70;7.95;;;6.20;100.00;;;;;;5054095;28;20053;-77
2023/04/01 01:01:08;;;;;;;16.95;7.03;;;6.20;100.00;;;;;;5078819;28;20044;-76
2023/04/01 01:03:35;;;;;;;16.95;6.60;;;6.20;100.00;;;;;;5058199;28;20051;-77
2023/04/01 01:06:21;;;;;;;18.70;7.85;;;6.10;100.00;;;;;;5071458;28;20082;-76
2023/04/01 01:09:10;;;;;;;22.95;7.32;;;6.10;100.00;;;;;;5076791;28;20051;-76
2023/04/01 01:11:42;;;;;;;17.35;7.38;;;6.10;100.00;;;;;;5075996;28;20514;-77
2023/04/01 01:14:16;;;;;;;14.95;6.72;;;6.10;100.00;;;;;;5056873;28;20048;-76
2023/04/01 01:16:48;;;;;;;20.17;7.38;;;6.00;100.00;;;;;;5069618;28;20052;-77
2023/04/01 01:19:47;;;;;;;20.33;7.65;;;6.00;100.00;;;;;;5076013;28;20051;-76
2023/04/01 01:22:40;;;;;;;18.38;7.28;;;5.90;100.00;;;;;;5060286;28;20051;-76
2023/04/01 01:25:16;;;;;;;21.75;7.75;;;5.80;100.00;;;;;;5047919;28;20694;-76
2023/04/01 01:27:49;;;;;;;24.23;7.13;;;5.80;100.00;;;;;;5078080;28;20052;-76
2023/04/01 01:30:26;;;;;;;26.90;8.85;;;5.70;100.00;;;;;;5072219;28;20040;-76
2023/04/01 01:32:58;;;;;;;16.33;7.03;;;5.70;100.00;;;;;;5075354;28;20070;-76
2023/04/01 01:35:40;;;;;;;17.15;7.13;;;5.60;100.00;;;;;;5078475;28;20074;-76
2023/04/01 01:38:12;;;;;;;22.35;7.45;;;5.60;100.00;;;;;;5076677;28;20677;-77
2023/04/01 01:40:43;;;;;;;18.05;7.10;;;5.50;100.00;;;;;;5071846;28;20500;-76
2023/04/01 01:43:13;;;;;;;20.90;6.32;;;5.50;100.00;;;;;;5059884;28;20056;-77
2023/04/01 01:45:46;;;;;;;15.73;6.80;;;5.50;100.00;;;;;;5074461;28;20055;-76
2023/04/01 01:48:13;;;;;;;18.50;6.63;;;5.40;100.00;;;;;;5076251;28;20598;-76
2023/04/01 01:50:41;;;;;;;14.20;6.65;;;5.40;100.00;;;;;;5074088;28;20796;-77
2023/04/01 01:53:10;;;;;;;20.13;6.80;;;5.40;100.00;;;;;;5059363;28;20055;-76
2023/04/01 01:55:40;;;;;;;16.40;7.10;;;5.40;100.00;;;;;;5058275;28;20044;-76
2023/04/01 01:58:31;;;;;;;13.00;5.90;;;5.40;100.00;;;;;;5074495;28;20127;-76
2023/04/01 02:01:05;;;;;;;14.68;6.25;;;5.30;100.00;;;;;;5073578;28;20584;-76
2023/04/01 02:03:36;;;;;;;15.35;6.22;;;5.30;100.00;;;;;;5066625;28;20056;-76
2023/04/01 02:06:07;;;;;;;20.45;6.93;;;5.30;100.00;;;;;;5077999;28;20503;-76
2023/04/01 02:08:44;;;;;;;13.35;5.75;;;5.20;100.00;;;;;;5069829;28;20048;-76
2023/04/01 02:11:15;;;;;;;13.88;5.32;;;5.20;100.00;;;;;;5077945;28;20050;-76
2023/04/01 02:13:54;;;;;;;11.98;5.38;;;5.10;100.00;;;;;;5077163;28;20054;-76
2023/04/01 02:16:29;;;;;;;21.13;6.20;;;5.20;100.00;;;;;;5070388;28;20048;-76
2023/04/01 02:25:10;;;;;;;10.02;5.82;;;5.10;100.00;;;;;;4996558;28;20060;-76
2023/04/01 02:27:38;;;;;;;19.08;6.60;;;5.20;100.00;;;;;;5002543;28;20093;-76
2023/04/01 02:30:06;;;;;;;13.02;5.55;;;5.10;100.00;;;;;;5003921;28;20053;-73
2023/04/01 02:32:35;;;;;;;12.75;6.20;;;5.10;100.00;;;;;;4989183;28;20053;-74
2023/04/01 02:35:05;;;;;;;13.68;6.00;;;5.10;100.00;;;;;;5000465;28;20042;-74
2023/04/01 02:37:32;;;;;;;14.95;6.22;;;5.10;100.00;;;;;;4998742;28;20077;-75
2023/04/01 02:40:07;;;;;;;11.98;5.43;;;5.10;100.00;;;;;;4985450;28;20052;-74
2023/04/01 02:42:34;;;;;;;15.27;5.20;;;5.10;100.00;;;;;;4999633;28;20136;-74
2023/04/01 02:45:02;;;;;;;13.00;5.20;;;5.00;100.00;;;;;;5001117;28;20053;-73
2023/04/01 02:47:29;;;;;;;11.57;4.78;;;5.00;100.00;;;;;;5000253;28;20143;-74
2023/04/01 02:49:58;;;;;;;11.35;4.70;;;5.00;100.00;;;;;;4997511;28;20132;-73
2023/04/01 02:52:25;;;;;;;12.15;4.75;;;4.90;100.00;;;;;;4983544;28;20046;-74
2023/04/01 02:54:53;;;;;;;11.95;4.65;;;4.90;100.00;;;;;;4997246;28;20056;-74
2023/04/01 02:57:20;;;;;;;13.63;4.32;;;4.90;100.00;;;;;;4999815;28;20050;-74
2023/04/01 02:59:47;;;;;;;11.95;4.68;;;4.90;100.00;;;;;;5002046;28;20046;-73
2023/04/01 03:02:14;;;;;;;12.05;4.60;;;4.90;100.00;;;;;;4984660;28;20054;-74
2023/04/01 03:04:41;;;;;;;12.60;4.75;;;4.90;100.00;;;;;;5000833;28;20054;-74
2023/04/01 03:07:12;;;;;;;13.80;4.88;;;4.90;100.00;;;;;;4979884;28;20077;-74
2023/04/01 03:09:39;;;;;;;11.88;4.38;;;4.90;100.00;;;;;;4988802;28;20063;-76
2023/04/01 03:12:06;;;;;;;16.58;5.07;;;4.90;100.00;;;;;;4997936;28;20049;-77
2023/04/01 03:14:33;;;;;;;10.18;4.85;;;4.80;100.00;;;;;;4999982;28;20502;-76
2023/04/01 03:17:00;;;;;;;12.23;4.53;;;4.80;100.00;;;;;;4999719;28;20372;-76
2023/04/01 03:19:27;;;;;;;12.25;4.72;;;4.80;100.00;;;;;;5000214;28;20442;-74
2023/04/01 03:21:54;;;;;;;16.10;4.90;;;4.80;100.00;;;;;;4984032;28;20054;-74
2023/04/01 03:24:21;;;;;;;13.35;4.78;;;4.80;100.00;;;;;;4984133;28;20590;-73
2023/04/01 03:26:48;;;;;;;13.70;4.63;;;4.80;100.00;;;;;;4981768;28;20061;-74
2023/04/01 03:29:15;;;;;;;13.70;4.82;;;4.80;100.00;;;;;;4993172;28;20081;-74
2023/04/01 03:31:42;;;;;;;12.85;4.57;;;4.80;100.00;;;;;;4996363;28;20042;-74
2023/04/01 03:34:10;;;;;;;21.73;4.93;;;4.70;100.00;;;;;;4999102;28;20080;-74
2023/04/01 03:36:37;;;;;;;12.07;4.40;;;4.70;100.00;;;;;;4972498;28;20821;-74
2023/04/01 03:39:03;;;;;;;15.07;4.95;;;4.70;100.00;;;;;;4996279;28;20046;-74
2023/04/01 03:41:30;;;;;;;11.68;4.60;;;4.70;100.00;;;;;;4989657;28;20065;-74
2023/04/01 03:43:57;;;;;;;10.98;3.78;;;4.70;100.00;;;;;;4997571;28;20723;-74
2023/04/01 03:46:24;;;;;;;10.50;4.20;;;4.70;100.00;;;;;;4994263;28;20495;-73
2023/04/01 03:48:51;;;;;;;12.10;4.88;;;4.70;100.00;;;;;;5003021;28;20054;-73
2023/04/01 03:51:17;;;;;;;9.85;4.25;;;4.70;100.00;;;;;;4999324;28;20491;-73
2023/04/01 03:53:45;;;;;;;9.13;4.15;;;4.70;100.00;;;;;;4978664;28;20141;-74
2023/04/01 03:56:11;;;;;;;12.63;5.00;;;4.70;100.00;;;;;;4998277;28;20042;-74
2023/04/01 03:58:38;;;;;;;16.85;4.78;;;4.70;100.00;;;;;;4998585;28;21066;-74
2023/04/01 04:01:21;;;;;;;13.40;4.85;;;4.70;100.00;;;;;;4977822;28;20112;-74
2023/04/01 04:03:49;;;;;;;10.55;4.03;;;4.70;100.00;;;;;;4990531;28;20069;-74
2023/04/01 04:06:18;;;;;;;10.10;3.70;;;4.60;100.00;;;;;;5000633;28;20058;-74
2023/04/01 04:08:45;;;;;;;9.98;3.90;;;4.70;100.00;;;;;;4980889;28;20049;-76
2023/04/01 04:11:12;;;;;;;10.60;4.13;;;4.60;100.00;;;;;;4984824;28;20049;-74
2023/04/01 04:13:39;;;;;;;12.90;4.13;;;4.60;100.00;;;;;;5001532;28;20050;-74
2023/04/01 04:16:06;;;;;;;11.77;3.65;;;4.60;100.00;;;;;;5000199;28;20541;-75
2023/04/01 04:18:33;;;;;;;12.77;4.07;;;4.50;100.00;;;;;;4985455;28;20065;-76
2023/04/01 04:21:00;;;;;;;8.52;3.78;;;4.50;100.00;;;;;;4978645;28;20049;-76
2023/04/01 04:23:29;;;;;;;8.95;3.42;;;4.50;100.00;;;;;;5003906;28;20059;-76
2023/04/01 04:26:34;;;;;;;8.10;3.58;;;4.50;100.00;;;;;;5018525;28;20049;-76
2023/04/01 04:29:02;;;;;;;11.35;3.75;;;4.40;100.00;;;;;;5011056;28;20051;-76
2023/04/01 04:31:29;;;;;;;16.50;4.43;;;4.50;100.00;;;;;;5018308;28;20057;-76
2023/04/01 04:33:56;;;;;;;9.75;3.95;;;4.40;100.00;;;;;;5016238;28;20041;-76
2023/04/01 04:36:23;;;;;;;16.38;3.80;;;4.50;100.00;;;;;;5022129;28;20578;-76
2023/04/01 04:38:50;;;;;;;13.30;4.68;;;4.50;100.00;;;;;;5007849;28;20089;-76
2023/04/01 04:41:37;;;;;;;11.10;4.35;;;4.40;100.00;;;;;;5017483;28;20049;-76
2023/04/01 04:44:05;;;;;;;9.65;3.47;;;4.40;100.00;;;;;;5016965;28;20065;-76
2023/04/01 04:46:32;;;;;;;10.82;3.25;;;4.40;100.00;;;;;;4997282;28;20975;-76
2023/04/01 04:48:59;;;;;;;10.60;3.22;;;4.40;100.00;;;;;;5018452;28;20056;-76
2023/04/01 04:51:26;;;;;;;8.10;3.80;;;4.40;100.00;;;;;;5001671;28;20053;-76
2023/04/01 04:53:53;;;;;;;11.02;3.38;;;4.40;100.00;;;;;;5005750;28;20068;-76
2023/04/01 04:56:21;;;;;;;12.00;3.50;;;4.40;100.00;;;;;;5020353;28;20497;-76
2023/04/01 04:58:48;;;;;;;6.63;3.13;;;4.30;100.00;;;;;;5003314;28;20049;-77
2023/04/01 05:01:17;;;;;;;10.63;4.00;;;4.30;100.00;;;;;;5016395;28;20046;-76
2023/04/01 05:03:44;;;;;;;12.30;3.83;;;4.30;100.00;;;;;;5000424;28;20049;-76
2023/04/01 05:06:13;;;;;;;11.27;3.45;;;4.30;100.00;;;;;;5014119;28;20056;-77
2023/04/01 05:08:42;;;;;;;6.80;3.10;;;4.30;100.00;;;;;;5019179;28;20049;-76
2023/04/01 05:11:17;;;;;;;13.98;4.00;;;4.30;100.00;;;;;;5007256;28;20155;-77
2023/04/01 05:13:45;;;;;;;10.57;4.28;;;4.30;100.00;;;;;;5003498;28;20049;-77
2023/04/01 05:16:14;;;;;;;11.02;4.32;;;4.30;100.00;;;;;;4998197;28;20077;-77
2023/04/01 05:18:41;;;;;;;13.15;4.45;;;4.30;100.00;;;;;;4999286;28;20095;-78
2023/04/01 05:21:10;;;;;;;9.90;4.28;;;4.30;100.00;;;;;;4999752;28;20136;-78
2023/04/01 05:23:37;;;;;;;8.88;3.53;;;4.30;100.00;;;;;;5000018;28;20053;-78
2023/04/01 05:26:13;;;;;;;10.93;4.25;;;4.20;100.00;;;;;;5015214;28;20049;-77
2023/04/01 05:28:40;;;;;;;12.93;4.55;;;4.20;100.00;;;;;;5019112;28;20136;-77
2023/04/01 05:31:08;;;;;;;11.13;4.70;;;4.20;100.00;;;;;;5016289;28;20053;-77
2023/04/01 05:33:35;;;;;;;12.77;4.78;;;4.30;100.00;;;;;;4997999;28;20056;-78
2023/04/01 05:36:10;;;;;;;9.98;4.43;;;4.30;100.00;;;;;;5003586;28;20050;-77
2023/04/01 05:38:37;;;;;;;10.32;4.32;;;4.20;100.00;;;;;;5002562;28;20064;-77
2023/04/01 05:41:04;;;;;;;13.07;4.40;;;4.20;100.00;;;;;;5018821;28;20053;-78
2023/04/01 05:43:55;;;;;;;14.82;4.43;;;4.20;100.00;;;;;;5001697;28;20048;-74
2023/04/01 05:46:22;;;;;;;10.82;4.95;;;4.20;100.00;;;;;;5008302;28;20750;-75
2023/04/01 05:48:48;;;;;;;12.82;5.18;;;4.30;100.00;;;;;;4999401;28;20045;-75
2023/04/01 05:51:15;;;;;;;17.90;5.28;;;4.30;100.00;;;;;;5006584;28;20696;-76
2023/04/01 05:53:43;;;;;;;14.95;5.70;;;4.30;100.00;;;;;;5019090;28;20049;-76
2023/04/01 05:56:19;;;;;;;13.77;5.55;;;4.30;100.00;;;;;;5021704;28;20701;-78
2023/04/01 05:58:51;;;;;;;17.83;5.70;;;4.30;100.00;;;;;;4996611;28;20093;-75
2023/04/01 06:01:18;;;;;;;16.50;6.20;;;4.30;100.00;;;;;;5018057;28;20073;-76
2023/04/01 06:03:45;;;;;;;0.00;0.00;;;4.30;100.00;;;;;;5010142;28;20049;-76
2023/04/01 06:06:23;;;;;;;0.00;0.00;;;4.20;100.00;;;;;;5026005;22;20133;-76
2023/04/01 06:08:51;;;;;;;0.00;0.00;;;4.30;100.00;;;;;;5052456;28;20509;-78
2023/04/01 06:11:44;;;;;;;0.00;0.00;;;4.30;100.00;;;;;;5037747;28;20294;-77
2023/04/01 06:14:33;;;;;;;0.00;0.00;;;4.30;100.00;;;;;;5059045;28;20055;-78
2023/04/01 06:17:21;;;;;;;0.00;0.00;;;4.30;100.00;;;;;;5040033;28;20682;-78
2023/04/01 06:20:06;;;;;;;0.00;0.00;;;4.30;100.00;;;;;;5055389;28;20103;-78
2023/04/01 06:23:14;;;;;;;0.00;0.00;;;4.30;100.00;;;;;;5035602;28;20048;-77
2023/04/01 06:26:13;;;;;;;0.00;0.00;;;4.30;100.00;;;;;;5039561;22;20142;-77
2023/04/01 06:28:46;;;;;;;0.00;0.00;;;4.30;100.00;;;;;;5023942;28;20146;-75
2023/04/01 06:31:39;;;;;;;0.00;0.00;;;4.30;100.00;;;;;;5025760;28;20199;-77
2023/04/01 06:34:14;;;;;;;0.00;0.00;;;4.30;100.00;;;;;;5024976;28;20098;-77
2023/04/01 06:37:19;;;;;;;0.00;0.00;;;4.30;100.00;;;;;;5041724;28;20057;-77
2023/04/01 06:40:23;;;;;;;0.00;0.00;;;4.30;100.00;;;;;;5021427;28;20071;-77
2023/04/01 06:42:50;;;;;;;0.00;0.00;;;4.30;100.00;;;;;;5014495;28;20164;-77
2023/04/01 06:45:26;;;;;;;0.00;0.00;;;4.40;100.00;;;;;;5017283;28;20048;-77
2023/04/01 06:48:08;;;;;;;0.00;0.00;;;4.40;100.00;;;;;;5031416;23;20136;-76
2023/04/01 06:50:54;;;;;;;0.00;0.00;;;4.40;100.00;;;;;;5060824;28;20053;-76
2023/04/01 06:53:42;;;;;;;0.00;0.00;;;4.40;100.00;;;;;;5048546;28;20065;-76
2023/04/01 06:56:13;;;;;;;0.00;0.00;;;4.40;100.00;;;;;;5074458;28;20045;-77
2023/04/01 06:58:52;;;;;;;0.00;0.00;;;4.40;100.00;;;;;;5072508;28;20055;-76
2023/04/01 07:01:27;;;;;;;0.00;0.00;;;4.40;100.00;;;;;;5073233;28;20106;-76
2023/04/01 07:04:01;;;;;;;0.00;0.00;;;4.40;100.00;;;;;;5076944;28;20117;-76
2023/04/01 07:06:35;;;;;;;0.00;0.00;;;4.50;100.00;;;;;;5071069;28;21044;-77
2023/04/01 07:09:09;;;;;;;0.00;0.00;;;4.40;100.00;;;;;;5074536;28;20052;-79
2023/04/01 07:11:38;;;;;;;0.00;0.00;;;4.40;100.00;;;;;;5059987;28;20048;-79
2023/04/01 07:14:19;;;;;;;0.00;0.00;;;4.40;100.00;;;;;;5068526;28;20071;-80
2023/04/01 07:17:13;;;;;;;0.00;0.00;;;4.40;100.00;;;;;;5059295;28;20059;-76
2023/04/01 07:20:31;;;;;;;0.00;0.00;;;4.50;100.00;;;;;;5066232;28;20135;-78
2023/04/01 07:23:40;;;;;;;0.00;0.00;;;4.50;100.00;;;;;;4974918;28;20488;-81
2023/04/01 07:28:45;;;;;;;0.00;0.00;;;4.50;100.00;;;;;;4956967;28;20146;-81
2023/04/01 07:32:06;;;;;;;0.00;0.00;;;4.50;100.00;;;;;;4951333;28;20053;-88
2023/04/01 07:34:51;;;;;;;0.00;0.00;;;4.50;100.00;;;;;;4931116;28;20181;-81
2023/04/01 07:37:27;;;;;;;0.00;0.00;;;4.50;100.00;;;;;;4955926;28;20562;-82
2023/04/01 07:40:00;;;;;;;;;;;4.50;100.00;;;;;;4964333;28;20751;-80
2023/04/01 07:42:55;;;;;;;0.00;0.00;;;4.50;100.00;;;;;;4961155;28;19938;-80
2023/04/01 07:45:36;;;;;;;0.00;0.00;;;4.50;100.00;;;;;;4967575;28;20054;-86
2023/04/01 07:48:29;;;;;;;0.00;0.00;;;4.50;100.00;;;;;;4954253;28;20386;-84
2023/04/01 07:51:31;;;;;;;0.00;0.00;;;4.50;100.00;;;;;;4954860;28;20061;-83
2023/04/01 07:54:12;;;;;;;0.00;0.00;;;4.50;100.00;;;;;;4971620;28;20141;-82
2023/04/01 07:56:51;;;;;;;0.00;0.00;;;4.50;100.00;;;;;;4951935;28;20137;-84
2023/04/01 07:59:27;;;;;;;0.00;0.00;;;4.50;100.00;;;;;;4954234;28;20143;-86
2023/04/01 08:02:12;;;;;;;0.00;0.00;;;4.50;100.00;;;;;;4954077;28;20059;-83
2023/04/01 08:04:42;;;;;;;0.00;0.00;;;4.50;100.00;;;;;;4955910;28;20500;-83
2023/04/01 08:07:09;;;;;;;0.00;0.00;;;4.60;100.00;;;;;;4955243;28;20054;-82
2023/04/01 08:09:54;;;;;;;0.00;0.00;;;4.60;100.00;;;;;;4956784;28;20181;-82
2023/04/01 08:12:23;;;;;;;0.00;0.00;;;4.60;100.00;;;;;;4962432;28;20055;-82
2023/04/01 08:15:07;;;;;;;0.00;0.00;;;4.60;100.00;;;;;;4966777;28;20614;-80
2023/04/01 08:17:44;;;;;;;0.00;0.00;;;4.60;100.00;;;;;;4970960;28;20065;-81
2023/04/01 08:20:14;;;;;;;0.00;0.00;;;4.60;100.00;;;;;;4975703;28;20125;-82
2023/04/01 08:23:10;;;;;;;0.00;0.00;;;4.60;100.00;;;;;;4957211;28;20069;-79
2023/04/01 08:25:50;;;;;;;0.00;0.00;;;4.60;100.00;;;;;;4965053;28;20046;-79
2023/04/01 08:28:32;;;;;;;0.00;0.00;;;4.60;100.00;;;;;;4953051;28;20057;-79
2023/04/01 08:31:03;;;;;;;0.00;0.00;;;4.60;100.00;;;;;;4966966;28;20125;-78
2023/04/01 08:33:31;;;;;;;0.00;0.00;;;4.70;100.00;;;;;;4967252;28;20442;-76
2023/04/01 08:36:01;;;;;;;0.00;0.00;;;4.60;100.00;;;;;;4964361;28;20070;-75
2023/04/01 08:38:40;;;;;;;0.00;0.00;;;4.70;100.00;;;;;;4965701;28;20550;-74
2023/04/01 08:41:25;;;;;;;0.00;0.00;;;4.70;100.00;;;;;;4946546;28;20411;-74
2023/04/01 08:43:54;;;;;;;0.00;0.00;;;4.70;100.00;;;;;;4943167;28;20054;-74
2023/04/01 08:46:41;;;;;;;0.00;0.00;;;4.60;100.00;;;;;;4963019;28;20062;-74
2023/04/01 08:49:33;;;;;;;0.00;0.00;;;4.60;100.00;;;;;;4964787;28;20047;-73
2023/04/01 08:52:26;;;;;;;0.00;0.00;;;4.60;100.00;;;;;;4964202;28;20069;-74
2023/04/01 08:55:15;;;;;;;0.00;0.00;;;4.60;100.00;;;;;;4965643;28;20145;-76
2023/04/01 08:58:29;;;;;;;0.00;0.00;;;4.60;100.00;;;;;;4974116;28;20058;-76
2023/04/01 09:01:11;;;;;;;0.00;0.00;;;4.50;100.00;;;;;;4963447;28;20057;-76
2023/04/01 09:04:10;;;;;;;0.00;0.00;;;4.40;100.00;;;;;;4949958;28;20051;-76
2023/04/01 09:06:45;;;;;;;0.00;0.00;;;4.30;100.00;;;;;;4949277;28;20138;-76
2023/04/01 09:09:33;;;;;;;0.00;0.00;;;4.30;100.00;;;;;;4950632;28;20050;-76
2023/04/01 09:12:30;;;;;;;0.00;0.00;;;4.30;100.00;;;;;;4963482;28;20082;-76
2023/04/01 09:15:21;;;;;;;0.00;0.00;;;4.20;100.00;;;;;;4970955;28;20523;-76
2023/04/01 09:17:51;;;;;;;0.00;0.00;;;4.20;100.00;;;;;;4976483;28;20065;-76
2023/04/01 09:24:25;;;;;;;0.00;0.00;;;4.20;100.00;;;;;;4966600;28;20045;-78
2023/04/01 09:27:30;;;;;;;0.00;0.00;;;4.20;100.00;;;;;;4967853;28;20051;-78
2023/04/01 09:30:19;;;;;;;0.20;0.20;;;4.20;100.00;;;;;;4951484;28;20089;-79
2023/04/01 09:33:16;;;;;;;0.00;0.00;;;4.20;100.00;;;;;;4952102;28;20050;-78
2023/04/01 09:36:03;;;;;;;0.00;0.00;;;4.20;100.00;;;;;;4966118;28;20047;-78
2023/04/01 09:38:40;;;;;;;0.00;0.00;;;4.20;100.00;;;;;;4963620;28;20078;-79
2023/04/01 09:41:27;;;;;;;0.00;0.00;;;4.30;100.00;;;;;;4961127;28;20482;-78
2023/04/01 09:43:54;;;;;;;0.00;0.00;;;4.30;100.00;;;;;;4966765;28;20093;-79
2023/04/01 09:46:40;;;;;;;0.00;0.00;;;4.20;100.00;;;;;;4967318;28;20133;-78
2023/04/01 09:49:44;;;;;;;0.00;0.00;;;4.20;100.00;;;;;;4969736;28;20062;-79
2023/04/01 09:52:32;;;;;;;0.03;0.03;;;4.20;100.00;;;;;;4963551;28;20054;-78
2023/04/01 09:55:37;;;;;;;0.00;0.00;;;4.20;100.00;;;;;;4966297;28;20054;-78
2023/04/01 09:58:15;;;;;;;0.35;0.35;;;4.20;100.00;;;;;;4952397;28;20047;-79
2023/04/01 10:01:13;;;;;;;0.00;0.00;;;4.20;100.00;;;;;;4968375;28;20089;-79
2023/04/01 10:03:51;;;;;;;0.00;0.00;;;4.20;100.00;;;;;;4962981;28;20047;-79
2023/04/01 10:06:18;;;;;;;0.00;0.00;;;4.30;100.00;;;;;;4951458;28;20047;-79
2023/04/01 10:09:03;;;;;;;0.00;0.00;;;4.30;100.00;;;;;;4966699;28;20105;-79
2023/04/01 10:11:51;;;;;;;0.00;0.00;;;4.30;100.00;;;;;;4972443;28;20059;-79
2023/04/01 10:14:36;;;;;;;0.00;0.00;;;4.30;100.00;;;;;;4955740;28;20053;-78
2023/04/01 10:17:21;;;;;;;0.00;0.00;;;4.30;100.00;;;;;;4967371;28;20471;-79
2023/04/01 10:20:15;;;;;;;0.00;0.00;;;4.30;100.00;;;;;;4965675;28;20106;-77
2023/04/01 10:22:42;;;;;;;0.00;0.00;;;4.30;100.00;;;;;;4954451;28;20134;-78
2023/04/01 10:25:18;;;;;;;0.10;0.10;;;4.30;100.00;;;;;;4967537;28;20062;-78
2023/04/01 10:28:13;;;;;;;0.00;0.00;;;4.30;100.00;;;;;;4954808;28;20101;-80
2023/04/01 10:30:52;;;;;;;0.00;0.00;;;4.30;100.00;;;;;;4949644;28;20138;-79
2023/04/01 10:33:24;;;;;;;0.00;0.00;;;4.30;100.00;;;;;;4964593;28;20053;-79
2023/04/01 10:36:33;;;;;;;0.00;0.00;;;4.30;100.00;;;;;;4951775;28;20054;-79
2023/04/01 10:42:23;;;;;;;0.00;0.00;;;4.30;100.00;;;;;;5038183;28;20053;-75
2023/04/01 10:45:18;;;;;;;0.00;0.00;;;4.20;100.00;;;;;;5039457;28;20053;-75
2023/04/01 10:47:50;;;;;;;0.00;0.00;;;4.30;100.00;;;;;;5047565;28;20052;-75
2023/04/01 10:53:03;;;;;;;0.00;0.00;;;4.20;100.00;;;;;;5059737;28;20067;-75
2023/04/01 10:55:59;;;;;;;0.25;0.25;;;4.20;100.00;;;;;;5062962;28;20551;-75
2023/04/01 10:58:29;;;;;;;0.00;0.00;;;4.20;100.00;;;;;;5048167;28;20053;-75
2023/04/01 11:01:37;;;;;;;0.00;0.00;;;4.20;100.00;;;;;;5052823;28;20045;-75
2023/04/01 11:04:42;;;;;;;0.00;0.00;;;4.20;100.00;;;;;;5058883;28;21373;-75
2023/04/01 11:07:24;;;;;;;0.00;0.00;;;4.10;100.00;;;;;;5059561;28;20048;-75
2023/04/01 11:10:24;;;;;;;0.00;0.00;;;4.00;100.00;;;;;;5058294;28;20066;-75
2023/04/01 11:13:35;;;;;;;0.00;0.00;;;4.00;100.00;;;;;;5058261;28;20060;-75
2023/04/01 11:16:29;;;;;;;0.00;0.00;;;4.00;100.00;;;;;;5072756;22;20059;-75
2023/04/01 11:19:38;;;;;;;0.03;0.03;;;4.00;100.00;;;;;;5084781;28;20059;-75
2023/04/01 11:22:24;;;;;;;14.80;1.50;;;4.00;100.00;;;;;;5087161;28;20444;-75
2023/04/01 11:24:59;;;;;;;0.00;0.00;;;3.90;100.00;;;;;;5077724;22;20476;-80
2023/04/01 11:27:37;;;;;;;0.00;0.00;;;4.00;100.00;;;;;;5069221;28;20052;-79
2023/04/01 11:30:21;;;;;;;0.00;0.00;;;4.00;100.00;;;;;;5076508;28;20135;-79
2023/04/01 11:32:57;;;;;;;0.00;0.00;;;4.00;100.00;;;;;;5069247;28;20063;-79
2023/04/01 11:35:29;;;;;;;0.00;0.00;;;4.10;100.00;;;;;;5085503;28;20138;-79
2023/04/01 11:38:19;;;;;;;0.00;0.00;;;4.10;100.00;;;;;;5089429;28;20102;-79
2023/04/01 11:41:18;;;;;;;0.00;0.00;;;4.10;100.00;;;;;;5090303;28;20052;-79
2023/04/01 11:43:53;;;;;;;0.00;0.00;;;4.10;100.00;;;;;;5076734;28;20051;-79
2023/04/01 11:46:46;;;;;;;0.00;0.00;;;4.10;100.00;;;;;;5080838;28;20041;-79
2023/04/01 11:49:41;;;;;;;0.00;0.00;;;4.20;100.00;;;;;;5071839;28;20437;-79
2023/04/01 11:52:19;;;;;;;0.00;0.00;;;4.30;100.00;;;;;;5083169;28;20044;-78
2023/04/01 11:54:46;;;;;;;0.00;0.00;;;4.20;100.00;;;;;;5087898;28;20389;-78
2023/04/01 11:57:38;;;;;;;0.00;0.00;;;4.20;100.00;;;;;;5077725;28;20086;-78
2023/04/01 12:00:10;;;;;;;0.00;0.00;;;4.20;100.00;;;;;;5069546;28;20044;-78
2023/04/01 12:03:10;;;;;;;0.00;0.00;;;4.30;100.00;;;;;;5087060;28;20044;-78
2023/04/01 12:05:48;;;;;;;0.00;0.00;;;4.30;100.00;;;;;;5084467;28;20060;-78
2023/04/01 12:08:37;;;;;;;0.00;0.00;;;4.50;99.20;;;;;;5087624;28;20457;-79
2023/04/01 12:11:59;;;;;;;0.05;0.05;;;4.40;98.60;;;;;;5082374;28;20045;-78
2023/04/01 12:14:47;;;;;;;0.00;0.00;;;4.40;99.10;;;;;;4980691;28;20900;-79
2023/04/01 12:17:20;;;;;;;0.15;0.10;;;4.30;98.60;;;;;;4975536;28;20054;-78
2023/04/01 12:20:37;;;;;;;0.00;0.00;;;4.30;98.50;;;;;;5045930;28;20044;-79
2023/04/01 12:23:07;;;;;;;0.00;0.00;;;4.30;99.10;;;;;;5056300;28;20037;-78
2023/04/01 12:29:03;;;;;;;0.00;0.00;;;4.20;99.30;;;;;;4984127;28;20054;-79
2023/04/01 12:31:45;;;;;;;0.00;0.00;;;4.20;99.80;;;;;;4986685;28;20165;-78
2023/04/01 12:34:15;;;;;;;0.00;0.00;;;4.20;98.90;;;;;;4989580;28;20046;-78
2023/04/01 12:40:10;;;;;;;0.00;0.00;;;4.20;98.50;;;;;;5026948;28;20132;-79
2023/04/01 12:42:46;;;;;;;0.00;0.00;;;4.20;98.80;;;;;;4928234;29;20055;-78
2023/04/01 12:45:30;;;;;;;0.00;0.00;;;4.30;98.60;;;;;;5019594;28;20132;-79
2023/04/01 12:48:14;;;;;;;0.00;0.00;;;4.30;98.20;;;;;;5027071;28;20844;-78
2023/04/01 12:50:51;;;;;;;1.48;0.32;;;4.30;97.10;;;;;;5009098;28;20053;-78
2023/04/01 12:53:24;;;;;;;0.00;0.00;;;4.30;98.20;;;;;;5003479;28;20052;-78
2023/04/01 12:55:52;;;;;;;0.00;0.00;;;4.20;97.70;;;;;;5026554;28;20059;-78
2023/04/01 12:58:22;;;;;;;0.00;0.00;;;4.20;97.30;;;;;;5006580;28;20100;-78
2023/04/01 13:01:07;;;;;;;0.00;0.00;;;4.10;97.90;;;;;;5024424;28;20064;-79
2023/04/01 13:03:56;;;;;;;0.88;0.88;;;4.10;97.30;;;;;;5025143;28;20044;-78
2023/04/01 13:06:52;;;;;;;0.00;0.00;;;4.10;97.30;;;;;;5006881;28;20452;-78
2023/04/01 13:09:25;;;;;;;;;;;4.10;97.50;;;;;;5005171;28;20501;-78
2023/04/01 13:12:27;;;;;;;0.00;0.00;;;4.10;97.10;;;;;;5026700;28;19940;-78
2023/04/01 13:16:05;;;;;;;0.00;0.00;;;4.00;97.30;;;;;;5030937;28;20041;-78
2023/04/01 13:18:43;;;;;;;0.00;0.00;;;4.10;97.90;;;;;;4915421;28;20481;-78
2023/04/01 13:21:16;;;;;;;0.00;0.00;;;4.10;96.30;;;;;;5001789;28;20091;-78
2023/04/01 13:23:52;;;;;;;0.00;0.00;;;4.10;96.80;;;;;;5027734;28;20045;-78
2023/04/01 13:26:31;;;;;;;0.00;0.00;;;4.10;95.90;;;;;;5025662;28;20072;-79
2023/04/01 13:29:23;;;;;;;0.00;0.00;;;4.10;96.10;;;;;;5030480;28;20040;-79
2023/04/01 13:32:05;;;;;;;0.00;0.00;;;4.10;96.50;;;;;;5008694;28;20056;-79
2023/04/01 13:35:07;;;;;;;0.00;0.00;;;4.10;97.60;;;;;;5026661;28;20054;-78
2023/04/01 13:37:56;;;;;;;0.00;0.00;;;4.10;97.00;;;;;;5008236;28;20744;-78
2023/04/01 13:40:40;;;;;;;0.00;0.00;;;4.00;96.00;;;;;;5022376;28;20068;-78
2023/04/01 13:43:39;;;;;;;0.00;0.00;;;4.00;95.60;;;;;;5027291;28;20045;-78
2023/04/01 13:46:10;;;;;;;0.00;0.00;;;4.00;95.70;;;;;;5026591;28;20049;-78
2023/04/01 13:49:00;;;;;;;0.00;0.00;;;3.90;95.40;;;;;;5028031;28;20072;-78
2023/04/01 13:51:36;;;;;;;0.00;0.00;;;3.90;94.90;;;;;;5028242;28;20081;-78
2023/04/01 13:54:12;;;;;;;0.00;0.00;;;3.90;96.10;;;;;;5028259;28;20053;-78
2023/04/01 13:59:58;;;;;;;0.00;0.00;;;4.00;95.70;;;;;;5021032;28;20049;-78
2023/04/01 14:06:05;;;;;;;0.00;0.00;;;4.00;95.70;;;;;;4984839;28;20054;-74
2023/04/01 14:08:55;;;;;;;0.00;0.00;;;3.90;94.50;;;;;;4964340;28;20090;-74
2023/04/01 14:11:44;;;;;;;0.00;0.00;;;3.80;93.50;;;;;;4967791;28;20125;-74
2023/04/01 14:14:39;;;;;;;0.00;0.00;;;3.80;94.10;;;;;;4978360;28;20073;-74